sensor_id;sensor_type;location;lat;lon;timestamp;P1;durP1;ratioP1;P2;durP2;ratioP2
789;SDS011;378;48.844;9.156;2022-08-07T00:02:21;1.75;;;0.90;;
789;SDS011;378;48.844;9.156;2022-08-07T00:04:48;7.30;;;0.80;;
789;SDS011;378;48.844;9.156;2022-08-07T00:07:14;1.15;;;0.85;;
789;SDS011;378;48.844;9.156;2022-08-07T00:09:42;3.75;;;1.05;;
789;SDS011;378;48.844;9.156;2022-08-07T00:12:09;2.90;;;0.90;;
789;SDS011;378;48.844;9.156;2022-08-07T00:14:37;3.05;;;1.00;;
789;SDS011;378;48.844;9.156;2022-08-07T00:17:04;4.28;;;0.88;;
789;SDS011;378;48.844;9.156;2022-08-07T00:19:31;5.22;;;0.95;;
789;SDS011;378;48.844;9.156;2022-08-07T00:21:59;1.60;;;0.85;;
789;SDS011;378;48.844;9.156;2022-08-07T00:24:26;5.65;;;0.93;;
789;SDS011;378;48.844;9.156;2022-08-07T00:26:52;4.65;;;0.80;;
789;SDS011;378;48.844;9.156;2022-08-07T00:29:19;4.63;;;0.82;;
789;SDS011;378;48.844;9.156;2022-08-07T00:31:52;0.68;;;0.57;;
789;SDS011;378;48.844;9.156;2022-08-07T00:34:20;6.28;;;0.98;;
789;SDS011;378;48.844;9.156;2022-08-07T00:36:47;5.20;;;1.00;;
789;SDS011;378;48.844;9.156;2022-08-07T00:39:14;1.65;;;0.70;;
789;SDS011;378;48.844;9.156;2022-08-07T00:41:46;0.75;;;0.75;;
789;SDS011;378;48.844;9.156;2022-08-07T00:44:14;1.15;;;0.70;;
789;SDS011;378;48.844;9.156;2022-08-07T00:46:41;0.90;;;0.70;;
789;SDS011;378;48.844;9.156;2022-08-07T00:49:10;1.75;;;1.00;;
789;SDS011;378;48.844;9.156;2022-08-07T00:51:37;5.43;;;0.95;;
789;SDS011;378;48.844;9.156;2022-08-07T00:54:04;1.30;;;0.75;;
789;SDS011;378;48.844;9.156;2022-08-07T00:56:31;1.70;;;0.70;;
789;SDS011;378;48.844;9.156;2022-08-07T00:58:58;1.20;;;0.88;;
789;SDS011;378;48.844;9.156;2022-08-07T01:01:26;5.03;;;0.70;;
789;SDS011;378;48.844;9.156;2022-08-07T01:03:53;1.85;;;0.80;;
789;SDS011;378;48.844;9.156;2022-08-07T01:06:22;4.65;;;0.77;;
789;SDS011;378;48.844;9.156;2022-08-07T01:08:49;3.83;;;1.00;;
789;SDS011;378;48.844;9.156;2022-08-07T01:11:15;2.05;;;0.90;;
789;SDS011;378;48.844;9.156;2022-08-07T01:13:43;1.98;;;0.90;;
789;SDS011;378;48.844;9.156;2022-08-07T01:16:10;1.50;;;0.80;;
789;SDS011;378;48.844;9.156;2022-08-07T01:18:38;2.85;;;0.90;;
789;SDS011;378;48.844;9.156;2022-08-07T01:21:09;3.13;;;0.90;;
789;SDS011;378;48.844;9.156;2022-08-07T01:23:36;1.77;;;1.00;;
789;SDS011;378;48.844;9.156;2022-08-07T01:26:06;2.47;;;0.90;;
789;SDS011;378;48.844;9.156;2022-08-07T01:28:34;3.08;;;0.80;;
789;SDS011;378;48.844;9.156;2022-08-07T01:31:01;1.25;;;0.80;;
789;SDS011;378;48.844;9.156;2022-08-07T01:33:29;0.88;;;0.77;;
789;SDS011;378;48.844;9.156;2022-08-07T01:35:56;2.47;;;0.85;;
789;SDS011;378;48.844;9.156;2022-08-07T01:38:25;1.77;;;0.88;;
789;SDS011;378;48.844;9.156;2022-08-07T01:40:54;2.30;;;1.10;;
789;SDS011;378;48.844;9.156;2022-08-07T01:43:22;1.33;;;0.85;;
789;SDS011;378;48.844;9.156;2022-08-07T01:45:50;1.42;;;0.80;;
789;SDS011;378;48.844;9.156;2022-08-07T01:48:17;3.63;;;1.20;;
789;SDS011;378;48.844;9.156;2022-08-07T01:50:45;2.85;;;0.90;;
789;SDS011;378;48.844;9.156;2022-08-07T01:53:15;2.38;;;0.90;;
789;SDS011;378;48.844;9.156;2022-08-07T01:55:48;2.63;;;0.88;;
789;SDS011;378;48.844;9.156;2022-08-07T01:58:17;3.30;;;1.10;;
789;SDS011;378;48.844;9.156;2022-08-07T02:00:49;5.35;;;0.88;;
789;SDS011;378;48.844;9.156;2022-08-07T02:03:20;1.98;;;0.80;;
789;SDS011;378;48.844;9.156;2022-08-07T02:05:51;5.95;;;0.90;;
789;SDS011;378;48.844;9.156;2022-08-07T02:08:22;1.77;;;0.80;;
789;SDS011;378;48.844;9.156;2022-08-07T02:10:52;3.90;;;0.90;;
789;SDS011;378;48.844;9.156;2022-08-07T02:13:23;1.05;;;0.80;;
789;SDS011;378;48.844;9.156;2022-08-07T02:15:52;1.63;;;0.90;;
789;SDS011;378;48.844;9.156;2022-08-07T02:18:20;1.02;;;0.70;;
789;SDS011;378;48.844;9.156;2022-08-07T02:20:48;1.13;;;0.63;;
789;SDS011;378;48.844;9.156;2022-08-07T02:23:17;2.15;;;0.75;;
789;SDS011;378;48.844;9.156;2022-08-07T02:25:45;5.82;;;0.98;;
789;SDS011;378;48.844;9.156;2022-08-07T02:28:14;2.05;;;0.70;;
789;SDS011;378;48.844;9.156;2022-08-07T02:30:44;1.45;;;0.85;;
789;SDS011;378;48.844;9.156;2022-08-07T02:33:11;2.65;;;0.85;;
789;SDS011;378;48.844;9.156;2022-08-07T02:35:39;1.95;;;0.90;;
789;SDS011;378;48.844;9.156;2022-08-07T02:38:07;1.42;;;0.98;;
789;SDS011;378;48.844;9.156;2022-08-07T02:40:36;1.58;;;0.77;;
789;SDS011;378;48.844;9.156;2022-08-07T02:43:03;4.93;;;1.05;;
789;SDS011;378;48.844;9.156;2022-08-07T02:45:33;1.02;;;0.70;;
789;SDS011;378;48.844;9.156;2022-08-07T02:48:04;5.13;;;0.80;;
789;SDS011;378;48.844;9.156;2022-08-07T02:50:32;2.25;;;0.70;;
789;SDS011;378;48.844;9.156;2022-08-07T02:53:03;2.00;;;0.90;;
789;SDS011;378;48.844;9.156;2022-08-07T02:55:32;3.50;;;0.93;;
789;SDS011;378;48.844;9.156;2022-08-07T02:58:03;2.75;;;0.90;;
789;SDS011;378;48.844;9.156;2022-08-07T03:00:33;0.88;;;0.60;;
789;SDS011;378;48.844;9.156;2022-08-07T03:03:02;2.55;;;0.90;;
789;SDS011;378;48.844;9.156;2022-08-07T03:05:31;2.38;;;0.98;;
789;SDS011;378;48.844;9.156;2022-08-07T03:08:00;2.95;;;0.70;;
789;SDS011;378;48.844;9.156;2022-08-07T03:10:28;2.05;;;0.80;;
789;SDS011;378;48.844;9.156;2022-08-07T03:12:56;2.35;;;0.70;;
789;SDS011;378;48.844;9.156;2022-08-07T03:15:23;0.80;;;0.80;;
789;SDS011;378;48.844;9.156;2022-08-07T03:17:53;2.55;;;1.00;;
789;SDS011;378;48.844;9.156;2022-08-07T03:20:20;2.90;;;0.90;;
789;SDS011;378;48.844;9.156;2022-08-07T03:22:48;1.33;;;0.80;;
789;SDS011;378;48.844;9.156;2022-08-07T03:25:17;2.85;;;0.95;;
789;SDS011;378;48.844;9.156;2022-08-07T03:27:45;1.42;;;0.80;;
789;SDS011;378;48.844;9.156;2022-08-07T03:30:13;2.17;;;0.90;;
789;SDS011;378;48.844;9.156;2022-08-07T03:32:41;1.15;;;0.82;;
789;SDS011;378;48.844;9.156;2022-08-07T03:35:16;3.47;;;1.08;;
789;SDS011;378;48.844;9.156;2022-08-07T03:37:47;4.53;;;1.10;;
789;SDS011;378;48.844;9.156;2022-08-07T03:40:18;1.80;;;1.00;;
789;SDS011;378;48.844;9.156;2022-08-07T03:42:45;2.55;;;0.90;;
789;SDS011;378;48.844;9.156;2022-08-07T03:45:12;4.38;;;0.82;;
789;SDS011;378;48.844;9.156;2022-08-07T03:47:40;1.77;;;0.90;;
789;SDS011;378;48.844;9.156;2022-08-07T03:50:07;1.33;;;0.75;;
789;SDS011;378;48.844;9.156;2022-08-07T03:52:36;3.97;;;1.02;;
789;SDS011;378;48.844;9.156;2022-08-07T03:55:03;8.85;;;1.13;;
789;SDS011;378;48.844;9.156;2022-08-07T03:57:31;3.72;;;1.40;;
789;SDS011;378;48.844;9.156;2022-08-07T03:59:59;2.42;;;0.90;;
789;SDS011;378;48.844;9.156;2022-08-07T04:02:26;3.35;;;1.15;;
789;SDS011;378;48.844;9.156;2022-08-07T04:04:53;4.80;;;1.50;;
789;SDS011;378;48.844;9.156;2022-08-07T04:07:20;4.32;;;1.35;;
789;SDS011;378;48.844;9.156;2022-08-07T04:09:49;2.88;;;1.20;;
789;SDS011;378;48.844;9.156;2022-08-07T04:12:17;5.07;;;1.35;;
789;SDS011;378;48.844;9.156;2022-08-07T04:14:45;6.03;;;1.27;;
789;SDS011;378;48.844;9.156;2022-08-07T04:17:12;2.70;;;1.20;;
789;SDS011;378;48.844;9.156;2022-08-07T04:19:40;2.70;;;1.10;;
789;SDS011;378;48.844;9.156;2022-08-07T04:22:07;2.30;;;0.90;;
789;SDS011;378;48.844;9.156;2022-08-07T04:24:34;1.20;;;0.88;;
789;SDS011;378;48.844;9.156;2022-08-07T04:27:04;2.42;;;0.90;;
789;SDS011;378;48.844;9.156;2022-08-07T04:29:31;3.10;;;0.95;;
789;SDS011;378;48.844;9.156;2022-08-07T04:31:57;2.47;;;1.00;;
789;SDS011;378;48.844;9.156;2022-08-07T04:34:24;3.20;;;1.00;;
789;SDS011;378;48.844;9.156;2022-08-07T04:36:51;3.13;;;0.95;;
789;SDS011;378;48.844;9.156;2022-08-07T04:39:19;1.58;;;0.82;;
789;SDS011;378;48.844;9.156;2022-08-07T04:41:45;3.08;;;0.70;;
789;SDS011;378;48.844;9.156;2022-08-07T04:44:14;1.08;;;0.85;;
789;SDS011;378;48.844;9.156;2022-08-07T04:46:43;1.85;;;0.90;;
789;SDS011;378;48.844;9.156;2022-08-07T04:49:14;3.85;;;0.90;;
789;SDS011;378;48.844;9.156;2022-08-07T04:51:47;2.67;;;1.00;;
789;SDS011;378;48.844;9.156;2022-08-07T04:54:21;2.20;;;0.70;;
789;SDS011;378;48.844;9.156;2022-08-07T04:56:56;3.38;;;1.10;;
789;SDS011;378;48.844;9.156;2022-08-07T04:59:32;1.35;;;0.77;;
789;SDS011;378;48.844;9.156;2022-08-07T05:02:03;1.58;;;0.88;;
789;SDS011;378;48.844;9.156;2022-08-07T05:04:37;2.55;;;0.95;;
789;SDS011;378;48.844;9.156;2022-08-07T05:07:11;1.67;;;0.80;;
789;SDS011;378;48.844;9.156;2022-08-07T05:09:43;1.30;;;0.80;;
789;SDS011;378;48.844;9.156;2022-08-07T05:12:21;1.70;;;0.90;;
789;SDS011;378;48.844;9.156;2022-08-07T05:14:56;2.05;;;1.00;;
789;SDS011;378;48.844;9.156;2022-08-07T05:17:40;1.60;;;1.02;;
789;SDS011;378;48.844;9.156;2022-08-07T05:20:09;3.38;;;1.08;;
789;SDS011;378;48.844;9.156;2022-08-07T05:22:39;1.80;;;0.93;;
789;SDS011;378;48.844;9.156;2022-08-07T05:25:09;3.88;;;0.90;;
789;SDS011;378;48.844;9.156;2022-08-07T05:27:37;4.13;;;0.90;;
789;SDS011;378;48.844;9.156;2022-08-07T05:30:08;1.27;;;0.93;;
789;SDS011;378;48.844;9.156;2022-08-07T05:32:35;0.93;;;0.70;;
789;SDS011;378;48.844;9.156;2022-08-07T05:35:05;2.92;;;0.85;;
789;SDS011;378;48.844;9.156;2022-08-07T05:37:33;1.33;;;0.60;;
789;SDS011;378;48.844;9.156;2022-08-07T05:40:01;1.65;;;0.80;;
789;SDS011;378;48.844;9.156;2022-08-07T05:42:29;1.30;;;0.95;;
789;SDS011;378;48.844;9.156;2022-08-07T05:44:56;4.40;;;0.80;;
789;SDS011;378;48.844;9.156;2022-08-07T05:47:25;1.45;;;0.73;;
789;SDS011;378;48.844;9.156;2022-08-07T05:49:52;2.45;;;0.90;;
789;SDS011;378;48.844;9.156;2022-08-07T05:52:20;2.13;;;0.88;;
789;SDS011;378;48.844;9.156;2022-08-07T05:54:47;2.20;;;0.80;;
789;SDS011;378;48.844;9.156;2022-08-07T05:57:14;5.10;;;0.90;;
789;SDS011;378;48.844;9.156;2022-08-07T05:59:42;3.40;;;1.00;;
789;SDS011;378;48.844;9.156;2022-08-07T06:02:12;1.58;;;0.90;;
789;SDS011;378;48.844;9.156;2022-08-07T06:04:50;1.48;;;0.90;;
789;SDS011;378;48.844;9.156;2022-08-07T06:07:20;1.95;;;0.90;;
789;SDS011;378;48.844;9.156;2022-08-07T06:09:47;4.75;;;1.10;;
789;SDS011;378;48.844;9.156;2022-08-07T06:12:14;2.53;;;1.10;;
789;SDS011;378;48.844;9.156;2022-08-07T06:14:42;3.42;;;1.02;;
789;SDS011;378;48.844;9.156;2022-08-07T06:17:09;2.97;;;1.10;;
789;SDS011;378;48.844;9.156;2022-08-07T06:19:38;2.67;;;1.30;;
789;SDS011;378;48.844;9.156;2022-08-07T06:22:07;3.00;;;1.40;;
789;SDS011;378;48.844;9.156;2022-08-07T06:24:35;2.90;;;1.50;;
789;SDS011;378;48.844;9.156;2022-08-07T06:27:02;3.15;;;1.40;;
789;SDS011;378;48.844;9.156;2022-08-07T06:29:29;2.28;;;1.25;;
789;SDS011;378;48.844;9.156;2022-08-07T06:31:58;4.20;;;1.58;;
789;SDS011;378;48.844;9.156;2022-08-07T06:34:25;4.47;;;1.60;;
789;SDS011;378;48.844;9.156;2022-08-07T06:36:52;2.58;;;1.27;;
789;SDS011;378;48.844;9.156;2022-08-07T06:39:21;2.80;;;1.13;;
789;SDS011;378;48.844;9.156;2022-08-07T06:41:48;5.25;;;1.38;;
789;SDS011;378;48.844;9.156;2022-08-07T06:44:22;3.70;;;1.63;;
789;SDS011;378;48.844;9.156;2022-08-07T06:46:51;3.67;;;1.60;;
789;SDS011;378;48.844;9.156;2022-08-07T06:49:18;2.75;;;1.67;;
789;SDS011;378;48.844;9.156;2022-08-07T06:51:45;3.90;;;1.60;;
789;SDS011;378;48.844;9.156;2022-08-07T06:54:13;2.72;;;1.70;;
789;SDS011;378;48.844;9.156;2022-08-07T06:56:44;2.65;;;1.75;;
789;SDS011;378;48.844;9.156;2022-08-07T06:59:15;3.88;;;1.75;;
789;SDS011;378;48.844;9.156;2022-08-07T07:01:44;8.02;;;1.98;;
789;SDS011;378;48.844;9.156;2022-08-07T07:04:13;9.05;;;1.88;;
789;SDS011;378;48.844;9.156;2022-08-07T07:06:41;2.63;;;1.70;;
789;SDS011;378;48.844;9.156;2022-08-07T07:09:15;1.90;;;1.60;;
789;SDS011;378;48.844;9.156;2022-08-07T07:11:48;3.08;;;1.58;;
789;SDS011;378;48.844;9.156;2022-08-07T07:14:30;2.97;;;1.83;;
789;SDS011;378;48.844;9.156;2022-08-07T07:17:02;4.60;;;2.13;;
789;SDS011;378;48.844;9.156;2022-08-07T07:19:34;2.65;;;1.80;;
789;SDS011;378;48.844;9.156;2022-08-07T07:22:09;5.05;;;1.60;;
789;SDS011;378;48.844;9.156;2022-08-07T07:24:37;2.78;;;1.65;;
789;SDS011;378;48.844;9.156;2022-08-07T07:27:06;2.40;;;1.50;;
789;SDS011;378;48.844;9.156;2022-08-07T07:29:35;3.58;;;1.50;;
789;SDS011;378;48.844;9.156;2022-08-07T07:32:06;1.92;;;1.50;;
789;SDS011;378;48.844;9.156;2022-08-07T07:34:35;3.17;;;1.70;;
789;SDS011;378;48.844;9.156;2022-08-07T07:37:06;4.03;;;1.30;;
789;SDS011;378;48.844;9.156;2022-08-07T07:39:34;3.55;;;1.50;;
789;SDS011;378;48.844;9.156;2022-08-07T07:42:03;2.20;;;1.48;;
789;SDS011;378;48.844;9.156;2022-08-07T07:44:33;3.88;;;1.70;;
789;SDS011;378;48.844;9.156;2022-08-07T07:47:01;3.28;;;1.60;;
789;SDS011;378;48.844;9.156;2022-08-07T07:49:28;2.75;;;1.50;;
789;SDS011;378;48.844;9.156;2022-08-07T07:51:57;1.40;;;1.05;;
789;SDS011;378;48.844;9.156;2022-08-07T07:54:25;1.95;;;1.15;;
789;SDS011;378;48.844;9.156;2022-08-07T07:56:52;3.20;;;1.05;;
789;SDS011;378;48.844;9.156;2022-08-07T07:59:22;2.22;;;1.40;;
789;SDS011;378;48.844;9.156;2022-08-07T08:01:51;2.00;;;1.10;;
789;SDS011;378;48.844;9.156;2022-08-07T08:04:20;2.67;;;1.05;;
789;SDS011;378;48.844;9.156;2022-08-07T08:06:50;1.67;;;1.20;;
789;SDS011;378;48.844;9.156;2022-08-07T08:09:19;2.80;;;1.30;;
789;SDS011;378;48.844;9.156;2022-08-07T08:11:49;2.38;;;1.23;;
789;SDS011;378;48.844;9.156;2022-08-07T08:14:16;1.98;;;1.10;;
789;SDS011;378;48.844;9.156;2022-08-07T08:16:43;1.77;;;1.10;;
789;SDS011;378;48.844;9.156;2022-08-07T08:19:13;1.75;;;1.25;;
789;SDS011;378;48.844;9.156;2022-08-07T08:21:45;2.40;;;1.10;;
789;SDS011;378;48.844;9.156;2022-08-07T08:24:33;3.75;;;0.95;;
789;SDS011;378;48.844;9.156;2022-08-07T08:27:20;1.92;;;1.05;;
789;SDS011;378;48.844;9.156;2022-08-07T08:29:50;2.95;;;1.17;;
789;SDS011;378;48.844;9.156;2022-08-07T08:32:22;1.95;;;1.00;;
789;SDS011;378;48.844;9.156;2022-08-07T08:34:53;3.03;;;1.08;;
789;SDS011;378;48.844;9.156;2022-08-07T08:37:22;2.42;;;0.90;;
789;SDS011;378;48.844;9.156;2022-08-07T08:39:50;1.88;;;0.80;;
789;SDS011;378;48.844;9.156;2022-08-07T08:42:20;4.53;;;0.70;;
789;SDS011;378;48.844;9.156;2022-08-07T08:44:52;0.95;;;0.65;;
789;SDS011;378;48.844;9.156;2022-08-07T08:47:26;2.80;;;0.60;;
789;SDS011;378;48.844;9.156;2022-08-07T08:50:03;5.70;;;0.63;;
789;SDS011;378;48.844;9.156;2022-08-07T08:52:38;1.05;;;0.60;;
789;SDS011;378;48.844;9.156;2022-08-07T08:55:17;1.55;;;0.70;;
789;SDS011;378;48.844;9.156;2022-08-07T08:57:51;0.80;;;0.50;;
789;SDS011;378;48.844;9.156;2022-08-07T09:00:29;0.85;;;0.50;;
789;SDS011;378;48.844;9.156;2022-08-07T09:03:01;3.40;;;0.57;;
789;SDS011;378;48.844;9.156;2022-08-07T09:05:39;1.27;;;0.52;;
789;SDS011;378;48.844;9.156;2022-08-07T09:08:18;2.60;;;0.80;;
789;SDS011;378;48.844;9.156;2022-08-07T09:10:54;2.05;;;0.70;;
789;SDS011;378;48.844;9.156;2022-08-07T09:13:30;0.68;;;0.50;;
789;SDS011;378;48.844;9.156;2022-08-07T09:16:03;4.28;;;0.70;;
789;SDS011;378;48.844;9.156;2022-08-07T09:21:38;0.68;;;0.50;;
789;SDS011;378;48.844;9.156;2022-08-07T09:24:15;1.25;;;0.70;;
789;SDS011;378;48.844;9.156;2022-08-07T09:26:51;4.00;;;0.60;;
789;SDS011;378;48.844;9.156;2022-08-07T09:29:23;3.13;;;0.55;;
789;SDS011;378;48.844;9.156;2022-08-07T09:31:55;1.13;;;0.50;;
789;SDS011;378;48.844;9.156;2022-08-07T09:34:35;1.65;;;0.63;;
789;SDS011;378;48.844;9.156;2022-08-07T09:37:17;1.05;;;0.50;;
789;SDS011;378;48.844;9.156;2022-08-07T09:39:53;1.88;;;0.63;;
789;SDS011;378;48.844;9.156;2022-08-07T09:42:33;0.50;;;0.50;;
789;SDS011;378;48.844;9.156;2022-08-07T09:45:09;1.05;;;0.60;;
789;SDS011;378;48.844;9.156;2022-08-07T09:47:43;2.63;;;0.50;;
789;SDS011;378;48.844;9.156;2022-08-07T09:53:03;1.42;;;0.50;;
789;SDS011;378;48.844;9.156;2022-08-07T09:55:36;0.75;;;0.50;;
789;SDS011;378;48.844;9.156;2022-08-07T09:58:19;2.35;;;0.55;;
789;SDS011;378;48.844;9.156;2022-08-07T10:01:00;2.17;;;0.40;;
789;SDS011;378;48.844;9.156;2022-08-07T10:06:35;1.20;;;0.43;;
789;SDS011;378;48.844;9.156;2022-08-07T10:09:27;1.23;;;0.50;;
789;SDS011;378;48.844;9.156;2022-08-07T10:12:13;4.30;;;0.60;;
789;SDS011;378;48.844;9.156;2022-08-07T10:15:03;0.63;;;0.28;;
789;SDS011;378;48.844;9.156;2022-08-07T10:17:47;1.48;;;0.45;;
789;SDS011;378;48.844;9.156;2022-08-07T10:20:27;1.85;;;0.50;;
789;SDS011;378;48.844;9.156;2022-08-07T10:23:10;4.05;;;0.50;;
789;SDS011;378;48.844;9.156;2022-08-07T10:26:00;0.52;;;0.40;;
789;SDS011;378;48.844;9.156;2022-08-07T10:28:47;1.48;;;0.45;;
789;SDS011;378;48.844;9.156;2022-08-07T10:31:30;3.70;;;0.40;;
789;SDS011;378;48.844;9.156;2022-08-07T10:34:14;1.77;;;0.60;;
789;SDS011;378;48.844;9.156;2022-08-07T10:36:56;1.70;;;0.47;;
789;SDS011;378;48.844;9.156;2022-08-07T10:39:38;0.70;;;0.50;;
789;SDS011;378;48.844;9.156;2022-08-07T10:42:24;0.75;;;0.50;;
789;SDS011;378;48.844;9.156;2022-08-07T10:45:00;1.52;;;0.60;;
789;SDS011;378;48.844;9.156;2022-08-07T10:47:38;4.00;;;0.45;;
789;SDS011;378;48.844;9.156;2022-08-07T10:50:11;1.27;;;0.40;;
789;SDS011;378;48.844;9.156;2022-08-07T10:52:46;1.13;;;0.40;;
789;SDS011;378;48.844;9.156;2022-08-07T10:55:19;0.90;;;0.50;;
789;SDS011;378;48.844;9.156;2022-08-07T10:57:54;1.35;;;0.40;;
789;SDS011;378;48.844;9.156;2022-08-07T11:00:42;1.40;;;0.47;;
789;SDS011;378;48.844;9.156;2022-08-07T11:03:16;0.60;;;0.47;;
789;SDS011;378;48.844;9.156;2022-08-07T11:05:52;0.65;;;0.30;;
789;SDS011;378;48.844;9.156;2022-08-07T11:08:24;0.68;;;0.30;;
789;SDS011;378;48.844;9.156;2022-08-07T11:11:02;0.45;;;0.40;;
789;SDS011;378;48.844;9.156;2022-08-07T11:13:35;0.75;;;0.30;;
789;SDS011;378;48.844;9.156;2022-08-07T11:16:07;1.30;;;0.50;;
789;SDS011;378;48.844;9.156;2022-08-07T11:18:38;1.50;;;0.68;;
789;SDS011;378;48.844;9.156;2022-08-07T11:21:13;2.08;;;0.40;;
789;SDS011;378;48.844;9.156;2022-08-07T11:23:51;0.70;;;0.30;;
789;SDS011;378;48.844;9.156;2022-08-07T11:26:25;0.85;;;0.30;;
789;SDS011;378;48.844;9.156;2022-08-07T11:29:02;1.60;;;0.50;;
789;SDS011;378;48.844;9.156;2022-08-07T11:31:33;0.93;;;0.45;;
789;SDS011;378;48.844;9.156;2022-08-07T11:34:09;0.60;;;0.30;;
789;SDS011;378;48.844;9.156;2022-08-07T11:36:47;1.25;;;0.50;;
789;SDS011;378;48.844;9.156;2022-08-07T11:39:24;1.00;;;0.45;;
789;SDS011;378;48.844;9.156;2022-08-07T11:41:58;1.45;;;0.30;;
789;SDS011;378;48.844;9.156;2022-08-07T11:44:38;1.80;;;0.63;;
789;SDS011;378;48.844;9.156;2022-08-07T11:47:19;0.90;;;0.40;;
789;SDS011;378;48.844;9.156;2022-08-07T11:49:55;2.30;;;0.52;;
789;SDS011;378;48.844;9.156;2022-08-07T11:52:44;1.10;;;0.43;;
789;SDS011;378;48.844;9.156;2022-08-07T11:55:22;3.60;;;0.40;;
789;SDS011;378;48.844;9.156;2022-08-07T11:58:02;2.10;;;0.40;;
789;SDS011;378;48.844;9.156;2022-08-07T12:00:44;1.70;;;0.52;;
789;SDS011;378;48.844;9.156;2022-08-07T12:03:28;1.40;;;0.30;;
789;SDS011;378;48.844;9.156;2022-08-07T12:06:31;0.93;;;0.50;;
789;SDS011;378;48.844;9.156;2022-08-07T12:09:10;1.38;;;0.47;;
789;SDS011;378;48.844;9.156;2022-08-07T12:11:44;3.35;;;0.70;;
789;SDS011;378;48.844;9.156;2022-08-07T12:14:16;0.40;;;0.40;;
789;SDS011;378;48.844;9.156;2022-08-07T12:16:49;1.90;;;0.30;;
789;SDS011;378;48.844;9.156;2022-08-07T12:19:20;2.90;;;0.40;;
789;SDS011;378;48.844;9.156;2022-08-07T12:21:57;0.88;;;0.30;;
789;SDS011;378;48.844;9.156;2022-08-07T12:24:33;2.30;;;0.30;;
789;SDS011;378;48.844;9.156;2022-08-07T12:27:26;0.68;;;0.40;;
789;SDS011;378;48.844;9.156;2022-08-07T12:30:00;1.17;;;0.40;;
789;SDS011;378;48.844;9.156;2022-08-07T12:32:33;0.82;;;0.50;;
789;SDS011;378;48.844;9.156;2022-08-07T12:35:08;3.63;;;0.60;;
789;SDS011;378;48.844;9.156;2022-08-07T12:37:37;0.40;;;0.40;;
789;SDS011;378;48.844;9.156;2022-08-07T12:40:07;1.42;;;0.40;;
789;SDS011;378;48.844;9.156;2022-08-07T12:42:35;0.65;;;0.40;;
789;SDS011;378;48.844;9.156;2022-08-07T12:45:06;2.10;;;0.40;;
789;SDS011;378;48.844;9.156;2022-08-07T12:47:39;0.68;;;0.40;;
789;SDS011;378;48.844;9.156;2022-08-07T12:50:15;2.28;;;0.40;;
789;SDS011;378;48.844;9.156;2022-08-07T12:52:49;0.40;;;0.40;;
789;SDS011;378;48.844;9.156;2022-08-07T12:55:28;0.98;;;0.47;;
789;SDS011;378;48.844;9.156;2022-08-07T12:58:00;1.85;;;0.30;;
789;SDS011;378;48.844;9.156;2022-08-07T13:00:30;1.65;;;0.32;;
789;SDS011;378;48.844;9.156;2022-08-07T13:03:09;0.30;;;0.30;;
789;SDS011;378;48.844;9.156;2022-08-07T13:05:52;0.55;;;0.40;;
789;SDS011;378;48.844;9.156;2022-08-07T13:08:34;0.63;;;0.50;;
789;SDS011;378;48.844;9.156;2022-08-07T13:11:13;3.10;;;0.40;;
789;SDS011;378;48.844;9.156;2022-08-07T13:13:54;4.70;;;0.40;;
789;SDS011;378;48.844;9.156;2022-08-07T13:16:34;1.17;;;0.40;;
789;SDS011;378;48.844;9.156;2022-08-07T13:19:22;2.17;;;0.40;;
789;SDS011;378;48.844;9.156;2022-08-07T13:21:58;0.40;;;0.40;;
789;SDS011;378;48.844;9.156;2022-08-07T13:24:29;2.90;;;0.70;;
789;SDS011;378;48.844;9.156;2022-08-07T13:27:04;0.65;;;0.40;;
789;SDS011;378;48.844;9.156;2022-08-07T13:29:37;0.82;;;0.50;;
789;SDS011;378;48.844;9.156;2022-08-07T13:32:13;2.60;;;0.40;;
789;SDS011;378;48.844;9.156;2022-08-07T13:34:47;0.77;;;0.47;;
789;SDS011;378;48.844;9.156;2022-08-07T13:37:22;0.50;;;0.40;;
789;SDS011;378;48.844;9.156;2022-08-07T13:39:58;2.97;;;0.50;;
789;SDS011;378;48.844;9.156;2022-08-07T13:42:31;0.65;;;0.40;;
789;SDS011;378;48.844;9.156;2022-08-07T13:45:00;0.85;;;0.57;;
789;SDS011;378;48.844;9.156;2022-08-07T13:47:31;3.05;;;0.60;;
789;SDS011;378;48.844;9.156;2022-08-07T13:50:02;0.88;;;0.60;;
789;SDS011;378;48.844;9.156;2022-08-07T13:52:30;1.92;;;0.70;;
789;SDS011;378;48.844;9.156;2022-08-07T13:55:04;1.45;;;0.52;;
789;SDS011;378;48.844;9.156;2022-08-07T13:57:33;0.82;;;0.30;;
789;SDS011;378;48.844;9.156;2022-08-07T14:00:04;0.73;;;0.45;;
789;SDS011;378;48.844;9.156;2022-08-07T14:02:33;2.95;;;0.50;;
789;SDS011;378;48.844;9.156;2022-08-07T14:05:03;2.00;;;0.47;;
789;SDS011;378;48.844;9.156;2022-08-07T14:07:37;2.45;;;0.60;;
789;SDS011;378;48.844;9.156;2022-08-07T14:10:07;0.90;;;0.60;;
789;SDS011;378;48.844;9.156;2022-08-07T14:12:36;1.95;;;0.60;;
789;SDS011;378;48.844;9.156;2022-08-07T14:15:16;3.67;;;0.60;;
789;SDS011;378;48.844;9.156;2022-08-07T14:17:45;1.30;;;0.50;;
789;SDS011;378;48.844;9.156;2022-08-07T14:20:16;1.50;;;0.50;;
789;SDS011;378;48.844;9.156;2022-08-07T14:22:47;1.40;;;0.50;;
789;SDS011;378;48.844;9.156;2022-08-07T14:25:17;1.30;;;0.47;;
789;SDS011;378;48.844;9.156;2022-08-07T14:27:52;0.85;;;0.40;;
789;SDS011;378;48.844;9.156;2022-08-07T14:30:21;0.60;;;0.40;;
789;SDS011;378;48.844;9.156;2022-08-07T14:32:53;2.67;;;0.40;;
789;SDS011;378;48.844;9.156;2022-08-07T14:35:22;0.45;;;0.40;;
789;SDS011;378;48.844;9.156;2022-08-07T14:37:51;0.77;;;0.60;;
789;SDS011;378;48.844;9.156;2022-08-07T14:40:19;3.15;;;0.60;;
789;SDS011;378;48.844;9.156;2022-08-07T14:42:52;1.65;;;0.60;;
789;SDS011;378;48.844;9.156;2022-08-07T14:45:23;3.03;;;0.50;;
789;SDS011;378;48.844;9.156;2022-08-07T14:47:52;0.52;;;0.40;;
789;SDS011;378;48.844;9.156;2022-08-07T14:50:23;1.35;;;0.70;;
789;SDS011;378;48.844;9.156;2022-08-07T14:52:52;1.10;;;0.40;;
789;SDS011;378;48.844;9.156;2022-08-07T14:55:20;0.60;;;0.50;;
789;SDS011;378;48.844;9.156;2022-08-07T14:57:48;4.00;;;0.43;;
789;SDS011;378;48.844;9.156;2022-08-07T15:00:16;0.68;;;0.43;;
789;SDS011;378;48.844;9.156;2022-08-07T15:02:45;2.65;;;0.50;;
789;SDS011;378;48.844;9.156;2022-08-07T15:05:13;0.93;;;0.68;;
789;SDS011;378;48.844;9.156;2022-08-07T15:07:43;0.57;;;0.40;;
789;SDS011;378;48.844;9.156;2022-08-07T15:10:15;0.88;;;0.52;;
789;SDS011;378;48.844;9.156;2022-08-07T15:12:43;1.58;;;0.60;;
789;SDS011;378;48.844;9.156;2022-08-07T15:15:12;2.30;;;0.63;;
789;SDS011;378;48.844;9.156;2022-08-07T15:17:51;0.75;;;0.50;;
789;SDS011;378;48.844;9.156;2022-08-07T15:20:22;2.15;;;0.45;;
789;SDS011;378;48.844;9.156;2022-08-07T15:22:53;3.22;;;0.50;;
789;SDS011;378;48.844;9.156;2022-08-07T15:25:22;1.35;;;0.47;;
789;SDS011;378;48.844;9.156;2022-08-07T15:27:51;1.02;;;0.60;;
789;SDS011;378;48.844;9.156;2022-08-07T15:30:22;0.40;;;0.40;;
789;SDS011;378;48.844;9.156;2022-08-07T15:32:52;0.43;;;0.40;;
789;SDS011;378;48.844;9.156;2022-08-07T15:35:20;1.45;;;0.68;;
789;SDS011;378;48.844;9.156;2022-08-07T15:37:50;1.20;;;0.50;;
789;SDS011;378;48.844;9.156;2022-08-07T15:40:21;0.68;;;0.50;;
789;SDS011;378;48.844;9.156;2022-08-07T15:42:53;0.65;;;0.45;;
789;SDS011;378;48.844;9.156;2022-08-07T15:45:26;0.98;;;0.47;;
789;SDS011;378;48.844;9.156;2022-08-07T15:48:06;1.98;;;0.55;;
789;SDS011;378;48.844;9.156;2022-08-07T15:50:40;2.88;;;0.68;;
789;SDS011;378;48.844;9.156;2022-08-07T15:53:11;2.47;;;0.60;;
789;SDS011;378;48.844;9.156;2022-08-07T15:55:50;1.38;;;0.65;;
789;SDS011;378;48.844;9.156;2022-08-07T15:58:20;0.85;;;0.50;;
789;SDS011;378;48.844;9.156;2022-08-07T16:00:57;1.40;;;0.65;;
789;SDS011;378;48.844;9.156;2022-08-07T16:03:25;3.00;;;0.65;;
789;SDS011;378;48.844;9.156;2022-08-07T16:05:56;2.67;;;0.70;;
789;SDS011;378;48.844;9.156;2022-08-07T16:08:25;1.23;;;0.70;;
789;SDS011;378;48.844;9.156;2022-08-07T16:10:55;4.18;;;0.80;;
789;SDS011;378;48.844;9.156;2022-08-07T16:13:44;0.93;;;0.60;;
789;SDS011;378;48.844;9.156;2022-08-07T16:16:25;2.08;;;0.50;;
789;SDS011;378;48.844;9.156;2022-08-07T16:19:14;0.55;;;0.52;;
789;SDS011;378;48.844;9.156;2022-08-07T16:22:01;1.00;;;0.52;;
789;SDS011;378;48.844;9.156;2022-08-07T16:24:37;3.47;;;0.60;;